Time;durP1;ratioP1;P1;durP2;ratioP2;P2;SDS_P1;SDS_P2;PMS_P1;PMS_P2;Temp;Humidity;BMP_temperature;BMP_pressure;BME280_temperature;BME280_humidity;BME280_pressure;Samples;Min_cycle;Max_cycle;Signal;HPM_P1;HPM_P2
2021/07/18 00:01:58;;;;;;;;;;;20.90;95.40;;;;;;5034567;28;20309;-78
2021/07/18 00:04:23;;;;;;;;;;;20.90;95.30;;;;;;5034332;28;20004;-77
2021/07/18 00:06:49;;;;;;;;;;;20.80;95.80;;;;;;5033067;28;19916;-78
2021/07/18 00:09:14;;;;;;;;;;;20.90;95.40;;;;;;5033874;28;20350;-76
2021/07/18 00:11:40;;;;;;;;;;;20.80;95.70;;;;;;5034233;28;19959;-77
2021/07/18 00:14:08;;;;;;;;;;;20.70;95.90;;;;;;5034105;28;19910;-77
2021/07/18 00:16:34;;;;;;;;;;;20.70;96.00;;;;;;5034320;28;19921;-78
2021/07/18 00:19:00;;;;;;;;;;;20.80;95.90;;;;;;5034113;28;20285;-77
2021/07/18 00:21:25;;;;;;;;;;;20.80;95.80;;;;;;5034215;28;19917;-77
2021/07/18 00:23:52;;;;;;;;;;;20.90;95.50;;;;;;5034183;28;20431;-77
2021/07/18 00:26:17;;;;;;;;;;;20.90;95.30;;;;;;5034055;28;19990;-76
2021/07/18 00:28:43;;;;;;;;;;;20.90;95.50;;;;;;5033949;28;19945;-78
2021/07/18 00:31:09;;;;;;;;;;;20.80;95.70;;;;;;5034111;28;19915;-78
2021/07/18 00:33:34;;;;;;;;;;;20.80;95.60;;;;;;5034125;28;19917;-78
2021/07/18 00:36:00;;;;;;;;;;;20.90;95.50;;;;;;5033864;28;20436;-78
2021/07/18 00:38:26;;;;;;;;;;;20.90;95.40;;;;;;5033872;28;19913;-78
2021/07/18 00:40:51;;;;;;;;;;;20.80;95.60;;;;;;5034094;28;19909;-78
2021/07/18 00:43:17;;;;;;;;;;;21.00;95.30;;;;;;5033857;28;20285;-77
2021/07/18 00:45:42;;;;;;;;;;;21.00;95.00;;;;;;5033738;28;19909;-77
2021/07/18 00:48:08;;;;;;;;;;;21.00;94.60;;;;;;5033732;28;20349;-76
2021/07/18 00:50:34;;;;;;;;;;;21.00;94.50;;;;;;5032424;28;19913;-77
2021/07/18 00:53:00;;;;;;;;;;;21.00;94.80;;;;;;5032383;28;19910;-76
2021/07/18 00:55:25;;;;;;;;;;;20.90;95.00;;;;;;5033712;28;20373;-77
2021/07/18 00:57:52;;;;;;;;;;;20.80;95.30;;;;;;5033684;28;19932;-77
2021/07/18 01:00:18;;;;;;;;;;;20.70;95.70;;;;;;5033674;28;19909;-77
2021/07/18 01:02:45;;;;;;;;;;;20.70;95.60;;;;;;5033627;28;19916;-76
2021/07/18 01:05:11;;;;;;;;;;;20.50;96.00;;;;;;5033563;28;19909;-77
2021/07/18 01:07:37;;;;;;;;;;;20.40;96.10;;;;;;5033432;28;19910;-77
2021/07/18 01:10:07;;;;;;;;;;;20.30;96.20;;;;;;5034315;28;20289;-77
2021/07/18 01:12:33;;;;;;;;;;;20.10;96.70;;;;;;5037604;28;19963;-76
2021/07/18 01:14:58;;;;;;;;;;;20.20;96.80;;;;;;5037540;28;19917;-76
2021/07/18 01:17:24;;;;;;;;;;;20.10;96.80;;;;;;5037528;28;19996;-77
2021/07/18 01:19:50;;;;;;;;;;;20.20;96.30;;;;;;5037462;28;19963;-76
2021/07/18 01:22:15;;;;;;;;;;;20.00;96.30;;;;;;5037850;28;19910;-76
2021/07/18 01:24:41;;;;;;;;;;;19.80;96.80;;;;;;5037475;28;19909;-76
2021/07/18 01:27:07;;;;;;;;;;;19.70;97.10;;;;;;5036015;28;20012;-76
2021/07/18 01:29:33;;;;;;;;;;;19.90;96.50;;;;;;5037364;28;19917;-77
2021/07/18 01:31:59;;;;;;;;;;;20.20;95.70;;;;;;5037210;28;19909;-77
2021/07/18 01:34:25;;;;;;;;;;;20.20;95.80;;;;;;5035824;28;20408;-75
2021/07/18 01:36:51;;;;;;;;;;;20.00;96.30;;;;;;5037267;28;19913;-78
2021/07/18 01:39:17;;;;;;;;;;;19.80;96.70;;;;;;5035832;28;20002;-77
2021/07/18 01:41:43;;;;;;;;;;;19.70;96.90;;;;;;5037094;28;19909;-78
2021/07/18 01:44:08;;;;;;;;;;;19.90;96.70;;;;;;5037197;28;19917;-77
2021/07/18 01:46:35;;;;;;;;;;;19.70;97.10;;;;;;5035656;28;19913;-77
2021/07/18 01:49:01;;;;;;;;;;;19.70;97.30;;;;;;5036871;28;19909;-75
2021/07/18 01:51:27;;;;;;;;;;;19.60;97.70;;;;;;5037076;28;19916;-78
2021/07/18 01:53:54;;;;;;;;;;;19.80;97.10;;;;;;5036837;28;19909;-76
2021/07/18 01:56:19;;;;;;;;;;;19.50;97.50;;;;;;5036723;28;19909;-77
2021/07/18 01:58:50;;;;;;;;;;;19.60;97.70;;;;;;5035381;28;20322;-76
2021/07/18 02:01:16;;;;;;;;;;;19.20;97.40;;;;;;5036839;28;19971;-77
2021/07/18 02:03:42;;;;;;;;;;;19.20;98.00;;;;;;5036623;28;19941;-76
2021/07/18 02:06:08;;;;;;;;;;;19.30;97.90;;;;;;5036685;28;19913;-76
2021/07/18 02:08:34;;;;;;;;;;;19.40;97.30;;;;;;5036350;28;20059;-77
2021/07/18 02:10:59;;;;;;;;;;;19.50;96.80;;;;;;5037073;28;19909;-77
2021/07/18 02:13:25;;;;;;;;;;;19.30;97.90;;;;;;5036455;28;19909;-77
2021/07/18 02:15:50;;;;;;;;;;;19.30;98.10;;;;;;5035020;28;19921;-78
2021/07/18 02:18:16;;;;;;;;;;;19.30;98.20;;;;;;5036391;28;19952;-76
2021/07/18 02:20:42;;;;;;;;;;;19.40;98.00;;;;;;5036482;28;19909;-76
2021/07/18 02:23:08;;;;;;;;;;;19.30;98.00;;;;;;5036300;28;19937;-77
2021/07/18 02:25:34;;;;;;;;;;;19.40;97.80;;;;;;5036280;28;19913;-77
2021/07/18 02:27:59;;;;;;;;;;;19.30;97.90;;;;;;5036249;28;19915;-77
2021/07/18 02:30:26;;;;;;;;;;;19.30;98.10;;;;;;5036412;28;19971;-76
2021/07/18 02:32:51;;;;;;;;;;;19.20;97.90;;;;;;5036067;28;19909;-77
2021/07/18 02:35:18;;;;;;;;;;;19.10;98.00;;;;;;5035984;28;19913;-78
2021/07/18 02:37:45;;;;;;;;;;;19.00;98.10;;;;;;5036068;28;19978;-77
2021/07/18 02:40:11;;;;;;;;;;;18.90;98.40;;;;;;5035973;28;19909;-76
2021/07/18 02:42:37;;;;;;;;;;;19.10;98.20;;;;;;5035892;28;19909;-76
2021/07/18 02:45:06;;;;;;;;;;;19.10;98.10;;;;;;5036061;28;20020;-77
2021/07/18 02:47:32;;;;;;;;;;;19.00;98.60;;;;;;5036142;28;20388;-77
2021/07/18 02:49:57;;;;;;;;;;;18.90;98.50;;;;;;5036005;28;19910;-77
2021/07/18 02:52:23;;;;;;;;;;;18.80;98.80;;;;;;5035743;28;19909;-78
2021/07/18 02:54:50;;;;;;;;;;;18.90;98.80;;;;;;5035667;28;20361;-76
2021/07/18 02:57:17;;;;;;;;;;;19.00;98.20;;;;;;5035786;28;19947;-77
2021/07/18 02:59:42;;;;;;;;;;;18.90;98.30;;;;;;5035586;28;19910;-77
2021/07/18 03:02:08;;;;;;;;;;;18.90;98.30;;;;;;5035546;28;19996;-76
2021/07/18 03:04:33;;;;;;;;;;;18.90;98.40;;;;;;5035666;28;19913;-77
2021/07/18 03:06:59;;;;;;;;;;;18.80;98.40;;;;;;5035487;28;19952;-78
2021/07/18 03:09:26;;;;;;;;;;;18.80;98.60;;;;;;5035229;28;20333;-76
2021/07/18 03:11:51;;;;;;;;;;;18.90;98.50;;;;;;5035523;28;19976;-77
2021/07/18 03:14:17;;;;;;;;;;;18.80;98.70;;;;;;5035374;28;20000;-76
2021/07/18 03:16:43;;;;;;;;;;;18.70;98.90;;;;;;5035379;28;20292;-77
2021/07/18 03:19:09;;;;;;;;;;;18.90;98.60;;;;;;5035277;28;19962;-77
2021/07/18 03:21:35;;;;;;;;;;;18.90;97.50;;;;;;5035141;28;19913;-77
2021/07/18 03:24:01;;;;;;;;;;;18.90;97.10;;;;;;5035403;28;19909;-78
2021/07/18 03:26:27;;;;;;;;;;;18.80;96.90;;;;;;5035079;28;19913;-76
2021/07/18 03:28:52;;;;;;;;;;;18.80;97.20;;;;;;5035031;28;20465;-75
2021/07/18 03:31:18;;;;;;;;;;;18.60;97.80;;;;;;5035010;28;20004;-75
2021/07/18 03:33:43;;;;;;;;;;;18.30;98.90;;;;;;5034292;28;19916;-76
2021/07/18 03:36:09;;;;;;;;;;;18.10;99.50;;;;;;5034944;28;19913;-77
2021/07/18 03:38:35;;;;;;;;;;;18.40;99.30;;;;;;5035083;28;19910;-78
2021/07/18 03:41:00;;;;;;;;;;;18.50;99.00;;;;;;5033503;28;20285;-76
2021/07/18 03:43:26;;;;;;;;;;;18.70;98.50;;;;;;5034742;28;19909;-76
2021/07/18 03:45:52;;;;;;;;;;;18.80;97.70;;;;;;5034740;28;19932;-76
2021/07/18 03:48:17;;;;;;;;;;;18.70;97.60;;;;;;5034685;28;20000;-77
2021/07/18 03:50:43;;;;;;;;;;;18.70;97.60;;;;;;5034674;28;20393;-78
2021/07/18 03:53:08;;;;;;;;;;;18.30;98.70;;;;;;5034676;28;19909;-77
2021/07/18 03:55:34;;;;;;;;;;;18.20;99.00;;;;;;5034451;28;19975;-76
2021/07/18 03:58:00;;;;;;;;;;;18.30;99.40;;;;;;5034466;28;20293;-77
2021/07/18 04:00:25;;;;;;;;;;;18.20;99.30;;;;;;5034426;28;19910;-77
2021/07/18 04:02:51;;;;;;;;;;;18.20;99.30;;;;;;5033142;28;19973;-76
2021/07/18 04:05:16;;;;;;;;;;;18.50;98.80;;;;;;5034527;28;19909;-76
2021/07/18 04:07:42;;;;;;;;;;;18.40;98.40;;;;;;5034158;28;20301;-77
2021/07/18 04:10:08;;;;;;;;;;;18.20;98.70;;;;;;5034597;28;19917;-76
2021/07/18 04:12:34;;;;;;;;;;;18.00;99.10;;;;;;5034437;28;19914;-77
2021/07/18 04:14:59;;;;;;;;;;;17.90;99.50;;;;;;5034145;28;19913;-76
2021/07/18 04:17:25;;;;;;;;;;;17.80;99.90;;;;;;5034180;28;19909;-76
2021/07/18 04:19:51;;;;;;;;;;;17.80;99.90;;;;;;5034136;28;19916;-76
2021/07/18 04:22:16;;;;;;;;;;;17.90;99.90;;;;;;5034105;28;19999;-77
2021/07/18 04:24:42;;;;;;;;;;;18.00;99.90;;;;;;5034144;28;19955;-78
2021/07/18 04:27:07;;;;;;;;;;;18.00;99.90;;;;;;5034131;28;19939;-77
2021/07/18 04:29:33;;;;;;;;;;;18.30;99.10;;;;;;5033980;28;19917;-77
2021/07/18 04:31:59;;;;;;;;;;;18.40;97.70;;;;;;5032644;28;19959;-77
2021/07/18 04:34:24;;;;;;;;;;;18.30;97.10;;;;;;5033877;28;20431;-76
2021/07/18 04:36:50;;;;;;;;;;;18.00;97.70;;;;;;5032639;28;20007;-76
2021/07/18 04:39:15;;;;;;;;;;;18.10;97.70;;;;;;5033915;28;20484;-77
2021/07/18 04:41:41;;;;;;;;;;;18.20;97.40;;;;;;5033840;28;19909;-75
2021/07/18 04:44:07;;;;;;;;;;;18.20;97.20;;;;;;5033441;28;20000;-76
2021/07/18 04:46:33;;;;;;;;;;;18.30;96.90;;;;;;5033317;28;20353;-76
2021/07/18 04:48:58;;;;;;;;;;;18.10;96.40;;;;;;5033706;28;20358;-76
2021/07/18 04:51:24;;;;;;;;;;;18.10;97.00;;;;;;5033673;28;19915;-77
2021/07/18 04:53:50;;;;;;;;;;;18.30;96.50;;;;;;5033829;28;19916;-76
2021/07/18 04:56:15;;;;;;;;;;;18.00;97.20;;;;;;5033554;28;20004;-77
2021/07/18 04:58:41;;;;;;;;;;;18.00;97.60;;;;;;5033698;28;19916;-77
2021/07/18 05:01:07;;;;;;;;;;;17.90;98.50;;;;;;5033633;28;20280;-78
2021/07/18 05:03:33;;;;;;;;;;;17.80;98.70;;;;;;5033597;28;19913;-76
2021/07/18 05:05:59;;;;;;;;;;;18.10;98.90;;;;;;5033534;28;19913;-77
2021/07/18 05:08:25;;;;;;;;;;;18.40;97.80;;;;;;5033210;28;20282;-77
2021/07/18 05:10:51;;;;;;;;;;;18.50;97.20;;;;;;5033509;28;19952;-76
2021/07/18 05:13:16;;;;;;;;;;;18.50;97.10;;;;;;5033495;28;19909;-77
2021/07/18 05:15:42;;;;;;;;;;;18.30;97.20;;;;;;5033561;28;19920;-76
2021/07/18 05:18:14;;;;;;;;;;;18.20;98.60;;;;;;5033699;28;20289;-76
2021/07/18 05:20:40;;;;;;;;;;;18.30;99.00;;;;;;5033401;28;19916;-77
2021/07/18 05:23:06;;;;;;;;;;;18.30;99.10;;;;;;5033354;28;20266;-77
2021/07/18 05:25:31;;;;;;;;;;;18.50;99.00;;;;;;5033582;28;19909;-77
2021/07/18 05:27:57;;;;;;;;;;;18.80;97.90;;;;;;5033401;28;19971;-76
2021/07/18 05:30:23;;;;;;;;;;;18.80;97.20;;;;;;5033353;28;19909;-77
2021/07/18 05:32:48;;;;;;;;;;;18.90;97.00;;;;;;5033423;28;19910;-76
2021/07/18 05:35:14;;;;;;;;;;;18.90;97.30;;;;;;5033252;28;19917;-76
2021/07/18 05:37:40;;;;;;;;;;;18.80;98.10;;;;;;5033550;28;19916;-78
2021/07/18 05:40:06;;;;;;;;;;;18.90;98.10;;;;;;5033241;28;20422;-77
2021/07/18 05:42:31;;;;;;;;;;;18.80;98.60;;;;;;5033390;28;19915;-77
2021/07/18 05:44:58;;;;;;;;;;;18.90;98.60;;;;;;5033183;28;19995;-77
2021/07/18 05:47:25;;;;;;;;;;;19.10;98.20;;;;;;5033272;28;20380;-76
2021/07/18 05:49:51;;;;;;;;;;;19.20;97.80;;;;;;5033110;28;19909;-78
2021/07/18 05:52:16;;;;;;;;;;;19.10;97.90;;;;;;5033401;28;19924;-77
2021/07/18 05:54:42;;;;;;;;;;;19.20;97.90;;;;;;5033056;28;19913;-76
2021/07/18 05:57:07;;;;;;;;;;;19.30;97.70;;;;;;5035423;28;19909;-77
2021/07/18 05:59:33;;;;;;;;;;;19.40;97.70;;;;;;5036820;28;19950;-77
2021/07/18 06:01:59;;;;;;;;;;;19.50;97.90;;;;;;5036833;28;20370;-77
2021/07/18 06:04:24;;;;;;;;;;;19.60;97.80;;;;;;5036629;28;19957;-76
2021/07/18 06:06:50;;;;;;;;;;;19.60;97.80;;;;;;5036849;28;19909;-76
2021/07/18 06:09:16;;;;;;;;;;;19.70;97.90;;;;;;5036402;28;20277;-78
2021/07/18 06:11:41;;;;;;;;;;;19.80;97.60;;;;;;5036377;28;19909;-77
2021/07/18 06:14:07;;;;;;;;;;;20.00;97.60;;;;;;5036602;28;20011;-78
2021/07/18 06:16:33;;;;;;;;;;;20.10;97.50;;;;;;5036513;28;19939;-78
2021/07/18 06:18:58;;;;;;;;;;;20.20;97.60;;;;;;5036399;28;19916;-77
2021/07/18 06:21:24;;;;;;;;;;;20.30;97.40;;;;;;5036329;28;20401;-77
2021/07/18 06:23:49;;;;;;;;;;;20.40;97.40;;;;;;5036221;28;19959;-77
2021/07/18 06:26:15;;;;;;;;;;;20.50;97.50;;;;;;5036274;28;19917;-76
2021/07/18 06:28:41;;;;;;;;;;;20.60;97.40;;;;;;5034918;28;19910;-77
2021/07/18 06:31:06;;;;;;;;;;;20.60;97.50;;;;;;5036373;28;19909;-77
2021/07/18 06:33:32;;;;;;;;;;;20.70;97.40;;;;;;5036611;28;19996;-77
2021/07/18 06:35:58;;;;;;;;;;;20.80;97.40;;;;;;5035995;28;19935;-77
2021/07/18 06:38:24;;;;;;;;;;;20.80;97.20;;;;;;5034773;28;20285;-77
2021/07/18 06:40:50;;;;;;;;;;;20.70;97.20;;;;;;5036149;28;20378;-77
2021/07/18 06:43:15;;;;;;;;;;;21.00;97.10;;;;;;5035855;28;19947;-77
2021/07/18 06:45:41;;;;;;;;;;;21.30;96.60;;;;;;5035800;28;19909;-78
2021/07/18 06:48:07;;;;;;;;;;;21.10;96.90;;;;;;5035731;28;20308;-79
2021/07/18 06:50:33;;;;;;;;;;;21.30;96.70;;;;;;5035722;28;20016;-78
2021/07/18 06:52:58;;;;;;;;;;;21.40;96.70;;;;;;5035478;28;19932;-77
2021/07/18 06:55:24;;;;;;;;;;;21.40;96.90;;;;;;5035509;28;19921;-77
2021/07/18 06:57:50;;;;;;;;;;;21.70;96.20;;;;;;5034212;28;20259;-78
2021/07/18 07:00:16;;;;;;;;;;;21.50;96.20;;;;;;5035869;28;20374;-76
2021/07/18 07:02:42;;;;;;;;;;;21.70;96.50;;;;;;5034117;28;20011;-77
2021/07/18 07:05:08;;;;;;;;;;;22.10;95.60;;;;;;5035426;28;19910;-78
2021/07/18 07:07:34;;;;;;;;;;;22.20;95.10;;;;;;5034252;28;20320;-78
2021/07/18 07:10:00;;;;;;;;;;;22.40;94.90;;;;;;5035815;28;20000;-77
2021/07/18 07:12:25;;;;;;;;;;;22.50;94.50;;;;;;5035406;28;19910;-77
2021/07/18 07:14:51;;;;;;;;;;;22.50;95.00;;;;;;5035267;28;19966;-78
2021/07/18 07:17:16;;;;;;;;;;;22.50;94.60;;;;;;5035282;28;19936;-76
2021/07/18 07:19:42;;;;;;;;;;;22.40;94.30;;;;;;5035344;28;19959;-78
2021/07/18 07:22:08;;;;;;;;;;;22.50;94.60;;;;;;5033898;28;19916;-78
2021/07/18 07:24:34;;;;;;;;;;;22.80;93.60;;;;;;5034991;28;20369;-77
2021/07/18 07:26:59;;;;;;;;;;;22.80;93.60;;;;;;5035026;28;19916;-78
2021/07/18 07:29:25;;;;;;;;;;;22.80;93.60;;;;;;5035054;28;19916;-77
2021/07/18 07:31:51;;;;;;;;;;;22.80;93.40;;;;;;5034989;28;19909;-77
2021/07/18 07:34:16;;;;;;;;;;;22.70;94.10;;;;;;5034885;28;20349;-77
2021/07/18 07:36:42;;;;;;;;;;;23.10;93.50;;;;;;5034897;28;19909;-78
2021/07/18 07:39:07;;;;;;;;;;;23.70;92.80;;;;;;5034831;28;19975;-78
2021/07/18 07:41:33;;;;;;;;;;;24.60;89.70;;;;;;5034785;28;20301;-77
2021/07/18 07:43:59;;;;;;;;;;;25.60;87.40;;;;;;5034780;28;19910;-76
2021/07/18 07:46:26;;;;;;;;;;;26.50;85.30;;;;;;5033421;28;20467;-77
2021/07/18 07:48:51;;;;;;;;;;;27.10;81.20;;;;;;5035070;28;19916;-78
2021/07/18 07:51:17;;;;;;;;;;;27.60;79.50;;;;;;5034770;28;19909;-78
2021/07/18 07:53:43;;;;;;;;;;;28.20;76.80;;;;;;5034576;28;19909;-77
2021/07/18 07:56:08;;;;;;;;;;;28.20;76.00;;;;;;5034482;28;20431;-78
2021/07/18 07:58:34;;;;;;;;;;;28.80;75.10;;;;;;5034529;28;19909;-78
2021/07/18 08:01:00;;;;;;;;;;;29.00;74.00;;;;;;5033225;28;19956;-78
2021/07/18 08:03:26;;;;;;;;;;;29.50;72.90;;;;;;5034550;28;19944;-78
2021/07/18 08:05:51;;;;;;;;;;;29.50;69.80;;;;;;5034144;28;19953;-79
2021/07/18 08:08:17;;;;;;;;;;;29.80;68.80;;;;;;5034021;28;20004;-78
2021/07/18 08:10:43;;;;;;;;;;;29.50;69.10;;;;;;5032857;28;19916;-78
2021/07/18 08:13:08;;;;;;;;;;;29.70;68.50;;;;;;5034170;28;19909;-77
2021/07/18 08:15:35;;;;;;;;;;;29.60;69.20;;;;;;5033979;28;19952;-76
2021/07/18 08:18:01;;;;;;;;;;;29.50;70.00;;;;;;5034019;28;19992;-79
2021/07/18 08:20:27;;;;;;;;;;;29.60;69.20;;;;;;5033776;28;19955;-77
2021/07/18 08:22:54;;;;;;;;;;;30.10;68.40;;;;;;5032723;28;19913;-78
2021/07/18 08:25:20;;;;;;;;;;;30.50;66.40;;;;;;5034011;28;19909;-79
2021/07/18 08:27:46;;;;;;;;;;;30.70;64.40;;;;;;5033023;28;19916;-77
2021/07/18 08:30:12;;;;;;;;;;;30.50;65.80;;;;;;5034065;28;19909;-77
2021/07/18 08:32:38;;;;;;;;;;;30.50;64.70;;;;;;5034488;28;20415;-77
2021/07/18 08:35:04;;;;;;;;;;;30.60;65.40;;;;;;5033812;28;20007;-77
2021/07/18 08:37:30;;;;;;;;;;;30.50;63.20;;;;;;5033995;28;19955;-77
2021/07/18 08:39:55;;;;;;;;;;;30.30;64.80;;;;;;5033889;28;19952;-79
2021/07/18 08:42:21;;;;;;;;;;;30.40;65.30;;;;;;5033849;28;19909;-78
2021/07/18 08:44:47;;;;;;;;;;;30.70;64.50;;;;;;5032547;28;20016;-78
2021/07/18 08:47:12;;;;;;;;;;;30.80;64.10;;;;;;5033750;28;19910;-78
2021/07/18 08:49:38;;;;;;;;;;;31.10;62.30;;;;;;5033757;28;19909;-76
2021/07/18 08:52:04;;;;;;;;;;;31.40;61.30;;;;;;5033729;28;19959;-76
2021/07/18 08:54:33;;;;;;;;;;;31.30;60.40;;;;;;5033716;28;19919;-78
2021/07/18 08:57:00;;;;;;;;;;;31.50;59.60;;;;;;5033566;28;19909;-78
2021/07/18 08:59:26;;;;;;;;;;;31.60;60.50;;;;;;5033518;28;20259;-78
2021/07/18 09:01:52;;;;;;;;;;;31.60;60.70;;;;;;5033970;28;19979;-76
2021/07/18 09:04:17;;;;;;;;;;;31.70;59.50;;;;;;5033694;28;19913;-77
2021/07/18 09:06:47;;;;;;;;;;;31.90;59.90;;;;;;5033694;28;19909;-77
2021/07/18 09:09:14;;;;;;;;;;;31.80;59.80;;;;;;5033429;28;19944;-77
2021/07/18 09:11:40;;;;;;;;;;;32.50;59.00;;;;;;5033569;28;19945;-79
2021/07/18 09:14:07;;;;;;;;;;;32.50;57.70;;;;;;5032236;28;19913;-77
2021/07/18 09:16:37;;;;;;;;;;;32.60;57.70;;;;;;5033457;28;19949;-78
2021/07/18 09:19:17;;;;;;;;;;;33.00;56.50;;;;;;5033459;28;19913;-78
2021/07/18 09:22:09;;;;;;;;;;;33.10;55.50;;;;;;5033431;28;20293;-79
2021/07/18 09:24:37;;;;;;;;;;;33.10;55.40;;;;;;5033019;28;19959;-78
2021/07/18 09:27:11;;;;;;;;;;;33.40;54.50;;;;;;5033408;28;19935;-79
2021/07/18 09:29:37;;;;;;;;;;;33.50;53.60;;;;;;5033691;28;19910;-78
2021/07/18 09:32:03;;;;;;;;;;;33.80;52.40;;;;;;5035701;28;19944;-79
2021/07/18 09:34:32;;;;;;;;;;;33.60;53.80;;;;;;5037109;28;19916;-78
2021/07/18 09:37:04;;;;;;;;;;;34.00;53.00;;;;;;5037380;28;20369;-81
2021/07/18 09:39:30;;;;;;;;;;;34.10;52.50;;;;;;5037321;28;19910;-79
2021/07/18 09:41:57;;;;;;;;;;;34.50;51.00;;;;;;5035554;28;19924;-79
2021/07/18 09:44:23;;;;;;;;;;;34.40;50.80;;;;;;5037088;28;19910;-79
2021/07/18 09:46:49;;;;;;;;;;;34.40;50.80;;;;;;5036970;28;19916;-78
2021/07/18 09:49:34;;;;;;;;;;;34.90;49.50;;;;;;5035611;28;20292;-78
2021/07/18 09:52:18;;;;;;;;;;;34.60;49.80;;;;;;5035636;28;19909;-78
2021/07/18 09:54:44;;;;;;;;;;;34.60;49.50;;;;;;5036846;28;20300;-79
2021/07/18 09:57:10;;;;;;;;;;;34.60;49.90;;;;;;5037039;28;19909;-79
2021/07/18 09:59:37;;;;;;;;;;;34.80;48.20;;;;;;5036720;28;20358;-78
2021/07/18 10:02:03;;;;;;;;;;;35.30;48.00;;;;;;5035323;28;19909;-79
2021/07/18 10:04:29;;;;;;;;;;;35.30;47.10;;;;;;5036691;28;19909;-77
2021/07/18 10:07:06;;;;;;;;;;;35.10;48.40;;;;;;5036531;28;19935;-78
2021/07/18 10:09:32;;;;;;;;;;;35.10;46.60;;;;;;5036144;28;19921;-79
2021/07/18 10:11:58;;;;;;;;;;;35.90;46.70;;;;;;5035235;28;20000;-77
2021/07/18 10:14:24;;;;;;;;;;;36.60;45.80;;;;;;5036478;28;19951;-79
2021/07/18 10:16:52;;;;;;;;;;;36.90;44.70;;;;;;5036471;28;19936;-78
2021/07/18 10:19:18;;;;;;;;;;;37.30;43.80;;;;;;5035098;28;19909;-77
2021/07/18 10:21:43;;;;;;;;;;;37.50;43.40;;;;;;5036337;28;19916;-78
2021/07/18 10:24:10;;;;;;;;;;;37.70;43.30;;;;;;5036353;28;20301;-79
2021/07/18 10:26:36;;;;;;;;;;;37.70;43.70;;;;;;5036211;28;19910;-75
2021/07/18 10:29:03;;;;;;;;;;;37.90;42.60;;;;;;5036115;28;20390;-75
2021/07/18 10:31:39;;;;;;;;;;;38.30;41.90;;;;;;5036290;28;19999;-74
2021/07/18 10:34:06;;;;;;;;;;;39.00;40.30;;;;;;5035926;28;19913;-76
2021/07/18 10:36:32;;;;;;;;;;;38.10;42.00;;;;;;5035958;28;19913;-78
2021/07/18 10:38:58;;;;;;;;;;;38.80;41.10;;;;;;5035905;28;19916;-78
2021/07/18 10:41:39;;;;;;;;;;;39.40;40.30;;;;;;5035859;28;19909;-76
2021/07/18 10:44:12;;;;;;;;;;;39.80;39.50;;;;;;5034486;28;19913;-76
2021/07/18 10:46:40;;;;;;;;;;;39.10;40.20;;;;;;5035875;28;19909;-74
2021/07/18 10:49:12;;;;;;;;;;;38.90;40.00;;;;;;5035683;28;20002;-76
2021/07/18 10:51:38;;;;;;;;;;;39.00;40.60;;;;;;5035954;28;19909;-75
2021/07/18 10:54:07;;;;;;;;;;;40.20;38.90;;;;;;5035744;28;19915;-76
2021/07/18 10:56:59;;;;;;;;;;;40.70;36.60;;;;;;5034154;28;20015;-75
2021/07/18 10:59:28;;;;;;;;;;;40.00;38.60;;;;;;5049650;28;20305;-76
2021/07/18 11:02:14;;;;;;;;;;;39.90;39.40;;;;;;5034146;28;20373;-78
2021/07/18 11:04:41;;;;;;;;;;;40.40;37.90;;;;;;5035158;28;19910;-76
2021/07/18 11:07:21;;;;;;;;;;;41.00;37.80;;;;;;5035391;28;19998;-78
2021/07/18 11:09:47;;;;;;;;;;;41.50;36.00;;;;;;5034029;28;19956;-76
2021/07/18 11:12:28;;;;;;;;;;;41.70;36.20;;;;;;5035453;28;19999;-77
2021/07/18 11:15:14;;;;;;;;;;;41.50;36.60;;;;;;5033853;28;19963;-75
2021/07/18 11:17:54;;;;;;;;;;;41.60;37.00;;;;;;5035080;28;19913;-76
2021/07/18 11:20:34;;;;;;;;;;;41.70;36.90;;;;;;5035477;28;19976;-75
2021/07/18 11:23:01;;;;;;;;;;;41.80;36.40;;;;;;5035257;28;19909;-77
2021/07/18 11:25:46;;;;;;;;;;;42.40;35.40;;;;;;5033663;28;19913;-77
2021/07/18 11:28:35;;;;;;;;;;;41.40;35.90;;;;;;5035291;28;19909;-77
2021/07/18 11:31:10;;;;;;;;;;;40.00;36.80;;;;;;5035027;28;19909;-74
2021/07/18 11:33:44;;;;;;;;;;;39.60;38.00;;;;;;5033551;28;19913;-77
2021/07/18 11:36:11;;;;;;;;;;;40.20;37.10;;;;;;5034785;28;19916;-77
2021/07/18 11:38:36;;;;;;;;;;;41.00;35.50;;;;;;5034837;28;19910;-76
2021/07/18 11:41:21;;;;;;;;;;;41.30;35.10;;;;;;5034887;28;19916;-79
2021/07/18 11:43:48;;;;;;;;;;;40.80;35.60;;;;;;5033363;28;19948;-76
2021/07/18 11:46:14;;;;;;;;;;;40.90;36.10;;;;;;5034562;28;19982;-77
2021/07/18 11:48:41;;;;;;;;;;;40.60;36.90;;;;;;5033270;28;19956;-77
2021/07/18 11:51:17;;;;;;;;;;;41.10;36.20;;;;;;5034514;28;19909;-74
2021/07/18 11:53:44;;;;;;;;;;;41.00;36.40;;;;;;5034210;28;19909;-77
2021/07/18 11:56:20;;;;;;;;;;;40.70;35.40;;;;;;5034753;28;20373;-76
2021/07/18 11:58:45;;;;;;;;;;;40.80;35.50;;;;;;5034375;28;19913;-75
2021/07/18 12:01:11;;;;;;;;;;;40.80;35.30;;;;;;5034208;28;19936;-76
2021/07/18 12:03:36;;;;;;;;;;;40.70;36.60;;;;;;5034270;28;19931;-77
2021/07/18 12:06:02;;;;;;;;;;;40.60;35.50;;;;;;5032960;28;19920;-77
2021/07/18 12:08:28;;;;;;;;;;;41.80;35.00;;;;;;5032757;28;20309;-76
2021/07/18 12:11:03;;;;;;;;;;;42.70;33.70;;;;;;5034196;28;19917;-76
2021/07/18 12:13:35;;;;;;;;;;;43.20;34.40;;;;;;5032778;28;19909;-75
2021/07/18 12:16:01;;;;;;;;;;;42.30;34.40;;;;;;5034104;28;20001;-77
2021/07/18 12:18:26;;;;;;;;;;;42.30;34.50;;;;;;5034072;28;19909;-76
2021/07/18 12:20:52;;;;;;;;;;;41.90;33.80;;;;;;5034131;28;20007;-76
2021/07/18 12:23:20;;;;;;;;;;;41.60;34.50;;;;;;5034190;28;20424;-76
2021/07/18 12:25:45;;;;;;;;;;;41.80;33.40;;;;;;5032571;28;19924;-76
2021/07/18 12:28:11;;;;;;;;;;;41.20;33.90;;;;;;5033931;28;19909;-75
2021/07/18 12:30:36;;;;;;;;;;;41.20;34.20;;;;;;5033855;28;20381;-75
2021/07/18 12:33:08;;;;;;;;;;;41.00;34.00;;;;;;5034100;28;19909;-77
2021/07/18 12:35:34;;;;;;;;;;;41.60;34.10;;;;;;5034110;28;19913;-77
2021/07/18 12:38:06;;;;;;;;;;;41.40;33.20;;;;;;5033979;28;19916;-77
2021/07/18 12:40:31;;;;;;;;;;;42.20;32.70;;;;;;5033806;28;19936;-77
2021/07/18 12:42:58;;;;;;;;;;;41.60;32.70;;;;;;5033665;28;19913;-78
2021/07/18 12:45:24;;;;;;;;;;;41.60;32.80;;;;;;5033586;28;20289;-76
2021/07/18 12:48:03;;;;;;;;;;;41.50;33.10;;;;;;5033812;28;19937;-76
2021/07/18 12:50:30;;;;;;;;;;;41.30;33.10;;;;;;5033711;28;20012;-78
2021/07/18 12:52:56;;;;;;;;;;;41.60;32.50;;;;;;5033728;28;19909;-75
2021/07/18 12:55:35;;;;;;;;;;;41.70;32.90;;;;;;5033873;28;20000;-77
2021/07/18 12:58:13;;;;;;;;;;;42.30;33.20;;;;;;5033528;28;19963;-76
2021/07/18 13:00:39;;;;;;;;;;;42.50;32.00;;;;;;5032166;28;19909;-77
2021/07/18 13:03:08;;;;;;;;;;;42.10;32.70;;;;;;5033510;28;19920;-74
2021/07/18 13:05:34;;;;;;;;;;;41.90;32.30;;;;;;5033711;28;19913;-75
2021/07/18 13:07:59;;;;;;;;;;;41.50;32.30;;;;;;5037517;28;19917;-77
2021/07/18 13:10:25;;;;;;;;;;;41.60;33.00;;;;;;5037556;28;19913;-78
2021/07/18 13:13:00;;;;;;;;;;;41.20;32.90;;;;;;5037494;28;20324;-76
2021/07/18 13:15:26;;;;;;;;;;;40.90;34.10;;;;;;5037765;28;20000;-73
2021/07/18 13:17:55;;;;;;;;;;;40.60;32.90;;;;;;5037427;28;19951;-76
2021/07/18 13:20:22;;;;;;;;;;;40.60;33.80;;;;;;5037544;28;19959;-75
2021/07/18 13:22:48;;;;;;;;;;;40.70;32.50;;;;;;5037270;28;19909;-76
2021/07/18 13:25:18;;;;;;;;;;;40.60;33.40;;;;;;5037218;28;19919;-77
2021/07/18 13:27:44;;;;;;;;;;;40.50;33.50;;;;;;5037336;28;19909;-76
2021/07/18 13:30:10;;;;;;;;;;;41.20;33.10;;;;;;5035774;28;19916;-76
2021/07/18 13:32:40;;;;;;;;;;;41.90;33.10;;;;;;5037217;28;20274;-76
2021/07/18 13:35:06;;;;;;;;;;;41.00;33.10;;;;;;5037035;28;19913;-76
2021/07/18 13:37:34;;;;;;;;;;;41.10;34.10;;;;;;5037212;28;19956;-76
2021/07/18 13:40:00;;;;;;;;;;;41.40;33.00;;;;;;5037243;28;19916;-76
2021/07/18 13:42:37;;;;;;;;;;;41.30;33.60;;;;;;5036933;28;19913;-76
2021/07/18 13:45:06;;;;;;;;;;;41.70;33.00;;;;;;5036803;28;19920;-75
2021/07/18 13:47:32;;;;;;;;;;;41.70;33.00;;;;;;5036866;28;19910;-77
2021/07/18 13:49:58;;;;;;;;;;;40.80;35.00;;;;;;5036857;28;19997;-76
2021/07/18 13:52:23;;;;;;;;;;;40.50;34.30;;;;;;5037002;28;19936;-75
2021/07/18 13:54:49;;;;;;;;;;;40.50;35.60;;;;;;5036807;28;19963;-76
2021/07/18 13:57:14;;;;;;;;;;;40.50;34.40;;;;;;5035371;28;19913;-77
2021/07/18 13:59:40;;;;;;;;;;;41.00;33.90;;;;;;5036688;28;19910;-77
2021/07/18 14:02:05;;;;;;;;;;;41.50;33.50;;;;;;5036575;28;19909;-76
2021/07/18 14:04:31;;;;;;;;;;;41.60;33.80;;;;;;5036546;28;19969;-76
2021/07/18 14:06:57;;;;;;;;;;;41.30;34.50;;;;;;5035297;28;19919;-75
2021/07/18 14:09:23;;;;;;;;;;;40.80;35.00;;;;;;5036133;28;20012;-78
2021/07/18 14:11:49;;;;;;;;;;;40.60;34.70;;;;;;5036575;28;20457;-76
2021/07/18 14:14:15;;;;;;;;;;;41.30;33.90;;;;;;5036472;28;20003;-76
2021/07/18 14:16:40;;;;;;;;;;;41.50;33.20;;;;;;5035964;28;19909;-77